Time;durP1;ratioP1;P1;durP2;ratioP2;P2;SDS_P1;SDS_P2;PMS_P1;PMS_P2;Temp;Humidity;BMP_temperature;BMP_pressure;BME280_temperature;BME280_humidity;BME280_pressure;Samples;Min_cycle;Max_cycle;Signal;HPM_P1;HPM_P2
2022/10/16 00:00:36;;;;;;;12.48;7.15;;;;;;;11.19;100.00;100889.91;5092830;28;20032;-79
2022/10/16 00:03:03;;;;;;;12.00;7.25;;;;;;;11.12;100.00;100879.88;5092657;28;20455;-77
2022/10/16 00:05:29;;;;;;;9.98;7.50;;;;;;;10.18;100.00;100814.28;5092265;28;20035;-80
2022/10/16 00:07:55;;;;;;;11.48;7.30;;;;;;;10.29;100.00;100830.22;5092757;28;20063;-79
2022/10/16 00:10:20;;;;;;;11.05;7.43;;;;;;;10.26;100.00;100800.59;5092718;28;20471;-80
2022/10/16 00:12:46;;;;;;;10.15;7.45;;;;;;;10.45;100.00;100892.69;5092711;28;20064;-81
2022/10/16 00:15:12;;;;;;;11.82;7.55;;;;;;;10.06;100.00;100835.53;5092615;28;20027;-76
2022/10/16 00:17:37;;;;;;;11.90;7.75;;;;;;;10.09;100.00;100810.13;5092338;28;20552;-80
2022/10/16 00:20:03;;;;;;;15.07;7.60;;;;;;;10.49;100.00;100886.72;5092863;28;20344;-80
2022/10/16 00:22:28;;;;;;;11.57;7.88;;;;;;;10.41;100.00;100879.19;5074559;28;20414;-79
2022/10/16 00:24:54;;;;;;;10.38;7.60;;;;;;;10.84;100.00;100876.91;5092511;28;20024;-79
2022/10/16 00:27:19;;;;;;;12.15;7.10;;;;;;;11.06;100.00;100879.97;5092501;28;20040;-80
2022/10/16 00:29:49;;;;;;;12.40;7.22;;;;;;;10.52;100.00;100873.94;5092450;28;20031;-80
2022/10/16 00:32:14;;;;;;;10.18;7.00;;;;;;;10.90;100.00;100883.59;5073820;28;20020;-80
2022/10/16 00:34:39;;;;;;;9.77;6.90;;;;;;;10.83;100.00;100887.94;5092428;28;20078;-80
2022/10/16 00:37:05;;;;;;;9.82;6.93;;;;;;;10.57;100.00;100831.53;5092284;28;20032;-77
2022/10/16 00:39:31;;;;;;;9.50;7.03;;;;;;;10.51;100.00;100810.44;5074001;28;20119;-79
2022/10/16 00:41:56;;;;;;;10.93;7.03;;;;;;;10.71;100.00;100884.72;5111258;28;20044;-78
2022/10/16 00:44:58;;;;;;;8.57;6.50;;;;;;;10.70;100.00;100883.03;5112651;28;20031;-78
2022/10/16 00:47:30;;;;;;;7.07;6.15;;;;;;;11.17;100.00;100895.91;5112596;28;20168;-78
2022/10/16 00:50:07;;;;;;;10.85;6.82;;;;;;;10.90;100.00;100896.31;5094766;28;20031;-79
2022/10/16 00:52:33;;;;;;;9.27;7.10;;;;;;;10.34;100.00;100829.28;5112518;28;20039;-78
2022/10/16 00:55:02;;;;;;;8.75;6.45;;;;;;;11.02;100.00;100891.03;5111768;28;20027;-78
2022/10/16 00:57:28;;;;;;;11.30;6.95;;;;;;;11.00;100.00;100898.72;5094259;28;20031;-79
2022/10/16 00:59:53;;;;;;;10.77;7.63;;;;;;;10.09;100.00;100783.88;5111771;28;20127;-76
2022/10/16 01:02:19;;;;;;;8.85;7.30;;;;;;;10.56;100.00;100847.63;5112379;28;20031;-78
2022/10/16 01:04:50;;;;;;;11.90;7.40;;;;;;;10.48;100.00;100879.94;5112195;28;20088;-72
2022/10/16 01:07:56;;;;;;;11.43;7.03;;;;;;;10.63;100.00;100901.78;5111988;28;20024;-75
2022/10/16 01:10:37;;;;;;;11.25;6.80;;;;;;;10.55;100.00;100898.50;5111711;28;20031;-76
2022/10/16 01:13:05;;;;;;;11.60;7.77;;;;;;;10.34;100.00;100905.53;5111736;28;20401;-75
2022/10/16 01:15:37;;;;;;;10.30;7.93;;;;;;;10.74;100.00;100912.66;5111990;28;20268;-75
2022/10/16 01:18:14;;;;;;;11.93;7.93;;;;;;;10.28;100.00;100920.03;5114413;28;20028;-75
2022/10/16 01:20:56;;;;;;;8.90;6.82;;;;;;;10.39;100.00;100908.88;5097981;28;20031;-75
2022/10/16 01:23:25;;;;;;;14.10;7.82;;;;;;;10.21;100.00;100911.63;5098201;28;20051;-76
2022/10/16 01:26:28;;;;;;;10.32;7.70;;;;;;;10.12;100.00;100905.81;5116004;28;20058;-75
2022/10/16 01:29:06;;;;;;;13.85;7.63;;;;;;;10.39;100.00;100919.03;5115834;28;20032;-76
2022/10/16 01:31:35;;;;;;;10.35;7.35;;;;;;;10.55;100.00;100918.84;5115830;28;20027;-76
2022/10/16 01:34:28;;;;;;;9.63;7.13;;;;;;;10.42;100.00;100854.59;5097687;28;20051;-77
2022/10/16 01:37:04;;;;;;;9.25;7.00;;;;;;;10.84;100.00;100925.22;5115332;28;20032;-75
2022/10/16 01:39:34;;;;;;;8.50;6.35;;;;;;;11.29;100.00;100928.78;5115307;28;20210;-75
2022/10/16 01:42:11;;;;;;;10.80;7.00;;;;;;;11.01;100.00;100927.53;5115423;28;20074;-75
2022/10/16 01:44:39;;;;;;;10.27;6.32;;;;;;;11.14;100.00;100929.03;5115804;28;20034;-76
2022/10/16 01:47:07;;;;;;;11.65;6.85;;;;;;;11.48;100.00;100932.75;5097418;28;20024;-76
2022/10/16 01:49:36;;;;;;;8.38;5.78;;;;;;;11.76;100.00;100922.97;5097245;28;20069;-76
2022/10/16 01:52:07;;;;;;;7.45;5.47;;;;;;;11.86;100.00;100932.97;5115560;28;20028;-77
2022/10/16 01:54:36;;;;;;;8.07;6.22;;;;;;;11.58;100.00;100910.50;5115392;28;20038;-79
2022/10/16 01:57:06;;;;;;;8.52;6.00;;;;;;;11.61;100.00;100929.13;5115593;28;20035;-79
2022/10/16 01:59:35;;;;;;;9.85;6.00;;;;;;;11.71;100.00;100930.69;5115417;28;20043;-76
2022/10/16 02:02:06;;;;;;;9.30;6.07;;;;;;;11.56;100.00;100915.63;5115281;28;20071;-77
2022/10/16 02:04:43;;;;;;;9.77;6.10;;;;;;;11.27;100.00;100862.63;5115987;28;20042;-77
2022/10/16 02:07:10;;;;;;;11.13;6.13;;;;;;;11.60;100.00;100906.22;5115503;28;20159;-80
2022/10/16 02:09:36;;;;;;;9.07;6.22;;;;;;;11.41;100.00;100852.22;5115498;28;20023;-76
2022/10/16 02:12:29;;;;;;;11.02;6.22;;;;;;;11.60;100.00;100918.97;5114915;28;20498;-76
2022/10/16 02:14:55;;;;;;;6.95;5.85;;;;;;;11.75;100.00;100927.22;5115006;28;20486;-74
2022/10/16 02:17:21;;;;;;;7.65;6.07;;;;;;;11.29;100.00;100938.97;5077316;28;20032;-74
2022/10/16 02:19:50;;;;;;;9.65;6.30;;;;;;;11.55;100.00;100928.41;5076701;28;20032;-78
2022/10/16 02:22:31;;;;;;;8.13;6.10;;;;;;;11.44;100.00;100925.16;5094556;28;20028;-78
2022/10/16 02:25:10;;;;;;;8.40;6.32;;;;;;;11.12;100.00;100864.59;5094473;28;20074;-76
2022/10/16 02:28:08;;;;;;;9.13;5.88;;;;;;;11.34;100.00;100930.41;5093993;28;20069;-76
2022/10/16 02:30:42;;;;;;;8.23;6.32;;;;;;;11.32;100.00;100934.69;5093868;28;20051;-74
2022/10/16 02:33:13;;;;;;;12.40;6.07;;;;;;;11.78;100.00;100937.38;5093741;28;20032;-73
2022/10/16 02:35:40;;;;;;;7.57;5.88;;;;;;;11.42;100.00;100943.03;5075677;28;20035;-73
2022/10/16 02:38:08;;;;;;;9.60;6.28;;;;;;;11.26;100.00;100931.41;5093565;28;20032;-74
2022/10/16 02:40:34;;;;;;;7.50;6.15;;;;;;;11.50;100.00;100938.66;5094788;28;20044;-76
2022/10/16 02:42:59;;;;;;;7.40;6.20;;;;;;;11.02;100.00;100903.75;5093807;28;20036;-76
2022/10/16 02:45:25;;;;;;;7.95;6.30;;;;;;;10.79;100.00;100888.00;5093253;28;20111;-74
2022/10/16 02:47:51;;;;;;;9.52;7.10;;;;;;;10.91;100.00;100942.09;5093692;28;20398;-72
2022/10/16 02:50:16;;;;;;;10.38;6.22;;;;;;;10.85;100.00;100951.50;5093468;28;20494;-74
2022/10/16 02:52:42;;;;;;;9.05;6.72;;;;;;;11.06;100.00;100958.84;5093688;28;20961;-77
2022/10/16 02:55:07;;;;;;;7.03;6.07;;;;;;;10.94;100.00;100959.84;5075441;28;20066;-75
2022/10/16 02:57:33;;;;;;;10.88;6.20;;;;;;;10.87;100.00;100952.34;5075184;28;20032;-75
2022/10/16 02:59:58;;;;;;;10.38;6.43;;;;;;;11.67;100.00;100969.81;5093456;28;20028;-75
2022/10/16 03:02:24;;;;;;;7.60;6.13;;;;;;;11.02;100.00;100964.84;5075231;28;20020;-76
2022/10/16 03:04:50;;;;;;;8.73;6.32;;;;;;;10.42;100.00;100907.97;5092809;28;20039;-71
2022/10/16 03:07:15;;;;;;;9.13;6.68;;;;;;;10.31;100.00;100920.84;5092318;28;20483;-72
2022/10/16 03:09:41;;;;;;;11.57;6.90;;;;;;;10.67;100.00;100964.47;5075105;28;20055;-73
2022/10/16 03:12:06;;;;;;;11.85;6.88;;;;;;;10.78;100.00;100920.22;5093083;28;20406;-72
2022/10/16 03:14:32;;;;;;;12.05;6.70;;;;;;;10.55;100.00;100909.53;5075047;28;20402;-72
2022/10/16 03:16:58;;;;;;;11.02;6.43;;;;;;;9.95;100.00;100862.78;5093144;28;20394;-75
2022/10/16 03:19:24;;;;;;;9.50;7.00;;;;;;;10.28;100.00;100913.22;5074897;28;20055;-73
2022/10/16 03:21:49;;;;;;;9.45;6.55;;;;;;;10.37;100.00;100915.69;5093063;28;20145;-72
2022/10/16 03:24:15;;;;;;;9.15;7.47;;;;;;;10.32;100.00;100919.97;5074624;28;20091;-72
2022/10/16 03:26:40;;;;;;;15.98;8.02;;;;;;;11.31;100.00;100958.47;5074551;28;20037;-70
2022/10/16 03:29:06;;;;;;;16.67;7.53;;;;;;;13.78;100.00;100977.31;5073657;28;20402;-69
2022/10/16 03:31:31;;;;;;;10.45;6.40;;;;;;;12.25;100.00;100958.56;5091670;28;20032;-70
2022/10/16 03:33:57;;;;;;;12.55;7.03;;;;;;;13.01;100.00;100962.06;5092125;28;20028;-71
2022/10/16 03:36:22;;;;;;;12.40;7.10;;;;;;;12.38;100.00;100968.50;5092023;28;20035;-69
2022/10/16 03:38:48;;;;;;;8.82;6.88;;;;;;;11.12;100.00;100941.78;5073168;28;20113;-70
2022/10/16 03:41:13;;;;;;;10.38;7.88;;;;;;;10.25;100.00;100915.81;5104687;28;20405;-71
2022/10/16 03:43:39;;;;;;;8.35;6.82;;;;;;;10.22;100.00;100915.84;5112421;28;20096;-72
2022/10/16 03:46:04;;;;;;;8.85;6.80;;;;;;;10.26;100.00;100940.38;5112151;28;20035;-71
2022/10/16 03:48:30;;;;;;;9.60;6.68;;;;;;;10.76;100.00;100988.06;5112221;28;20039;-71
2022/10/16 03:50:55;;;;;;;8.52;6.60;;;;;;;10.43;100.00;100941.03;5094441;28;20034;-72
2022/10/16 03:53:21;;;;;;;12.73;7.47;;;;;;;10.78;100.00;100965.16;5112170;28;20034;-71
2022/10/16 03:55:46;;;;;;;9.23;6.95;;;;;;;10.46;100.00;100947.75;5111946;28;20030;-71
2022/10/16 03:58:12;;;;;;;10.80;6.70;;;;;;;10.97;100.00;100999.69;5093720;28;20039;-71
2022/10/16 04:00:47;;;;;;;8.60;6.65;;;;;;;10.25;100.00;100882.78;5093668;28;20493;-70
2022/10/16 04:03:12;;;;;;;10.98;6.75;;;;;;;10.53;100.00;100946.84;5112064;28;20401;-70
2022/10/16 04:05:39;;;;;;;8.07;6.88;;;;;;;10.66;100.00;100980.56;5093719;28;20028;-71
2022/10/16 04:08:05;;;;;;;9.18;7.28;;;;;;;10.35;100.00;100934.34;5111871;28;20035;-72
2022/10/16 04:10:30;;;;;;;9.07;6.60;;;;;;;10.62;100.00;100971.31;5111306;28;20088;-71
2022/10/16 04:12:56;;;;;;;12.70;7.22;;;;;;;10.69;100.00;100970.38;5112106;28;20027;-71
2022/10/16 04:15:25;;;;;;;11.77;7.13;;;;;;;10.48;100.00;100917.25;5111052;28;20023;-71
2022/10/16 04:17:51;;;;;;;10.02;7.10;;;;;;;10.19;100.00;100937.91;5111497;28;20041;-70
2022/10/16 04:20:16;;;;;;;8.98;6.70;;;;;;;10.60;100.00;100947.63;5111641;28;20040;-72
2022/10/16 04:22:42;;;;;;;10.02;6.75;;;;;;;10.74;100.00;100994.03;5111670;28;20096;-71
2022/10/16 04:25:07;;;;;;;11.57;6.85;;;;;;;10.68;100.00;100940.69;5111809;28;20074;-71
2022/10/16 04:27:33;;;;;;;7.90;6.65;;;;;;;10.50;100.00;100925.69;5111007;28;20035;-71
2022/10/16 04:29:59;;;;;;;14.00;7.95;;;;;;;10.55;100.00;100995.13;5111769;28;20130;-72
2022/10/16 04:32:25;;;;;;;10.75;7.03;;;;;;;10.28;100.00;100935.28;5111576;28;20072;-72
2022/10/16 04:34:51;;;;;;;10.15;6.45;;;;;;;10.41;100.00;100919.03;5111382;28;20062;-71
2022/10/16 04:37:16;;;;;;;9.25;6.25;;;;;;;10.90;100.00;100950.59;5111804;28;20111;-71
2022/10/16 04:39:42;;;;;;;6.88;6.00;;;;;;;11.14;100.00;101013.88;5111021;28;20028;-71
2022/10/16 04:42:07;;;;;;;8.10;6.22;;;;;;;11.32;100.00;100988.16;5093134;28;20031;-71
2022/10/16 04:44:32;;;;;;;12.68;7.75;;;;;;;10.66;100.00;101027.19;5093172;28;20077;-72
2022/10/16 04:46:58;;;;;;;14.75;8.98;;;;;;;10.24;100.00;101030.22;5111527;28;20039;-71
2022/10/16 04:49:23;;;;;;;10.98;9.25;;;;;;;9.83;100.00;100943.31;5111272;28;20031;-71
2022/10/16 04:51:49;;;;;;;15.13;9.90;;;;;;;10.25;100.00;100970.88;5110366;28;20031;-70
2022/10/16 04:54:14;;;;;;;14.73;9.80;;;;;;;9.74;100.00;100923.97;5110859;28;20032;-71
2022/10/16 04:56:46;;;;;;;15.65;9.80;;;;;;;10.01;100.00;100966.84;5111139;28;20024;-73
2022/10/16 04:59:11;;;;;;;;;;;;;;;10.22;100.00;101027.66;5092719;28;20034;-71
2022/10/16 05:01:37;;;;;;;15.80;9.95;;;;;;;10.97;100.00;100958.97;5111213;28;19912;-70
2022/10/16 05:04:02;;;;;;;14.52;8.60;;;;;;;11.53;100.00;100981.88;5110718;28;20024;-73
2022/10/16 05:06:28;;;;;;;15.00;9.68;;;;;;;11.27;100.00;101045.91;5092541;28;20024;-74
2022/10/16 05:08:53;;;;;;;16.95;10.40;;;;;;;10.20;100.00;100982.81;5110842;28;20054;-71
2022/10/16 05:11:18;;;;;;;20.83;13.00;;;;;;;10.08;100.00;100987.97;5110850;28;20019;-71
2022/10/16 05:13:44;;;;;;;18.80;12.18;;;;;;;10.37;100.00;101030.06;5110549;28;20122;-71
2022/10/16 05:16:09;;;;;;;17.58;11.48;;;;;;;11.76;100.00;101047.78;5110746;28;20024;-71
2022/10/16 05:18:34;;;;;;;15.13;10.70;;;;;;;12.93;100.00;101003.97;5110690;28;20053;-70
2022/10/16 05:21:00;;;;;;;14.27;11.15;;;;;;;13.44;100.00;101041.16;5092591;28;20442;-73
2022/10/16 05:23:25;;;;;;;16.95;11.07;;;;;;;13.11;100.00;100939.78;5111053;28;20031;-73
2022/10/16 05:25:59;;;;;;;15.23;10.60;;;;;;;14.64;100.00;101062.88;5110846;28;20027;-73
2022/10/16 05:28:26;;;;;;;15.85;10.50;;;;;;;14.19;100.00;100995.00;5110750;28;20039;-70
2022/10/16 05:30:52;;;;;;;17.10;10.95;;;;;;;14.37;100.00;100960.44;5110666;28;20413;-71
2022/10/16 05:33:20;;;;;;;20.35;11.25;;;;;;;15.21;100.00;101016.00;5110690;28;20028;-71
2022/10/16 05:35:46;;;;;;;18.15;11.35;;;;;;;14.43;100.00;100973.06;5092420;28;20028;-71
2022/10/16 05:38:11;;;;;;;15.88;10.38;;;;;;;15.19;100.00;101077.53;5110595;28;20093;-72
2022/10/16 05:40:37;;;;;;;18.40;11.30;;;;;;;15.55;100.00;101080.75;5092142;28;20108;-72
2022/10/16 05:43:03;;;;;;;18.58;11.68;;;;;;;15.19;100.00;101033.16;5110536;28;20032;-71
2022/10/16 05:45:28;;;;;;;17.40;11.50;;;;;;;15.49;100.00;101091.19;5092064;28;20059;-72
2022/10/16 05:47:54;;;;;;;17.00;11.27;;;;;;;15.54;100.00;101038.06;5092180;28;20035;-71
2022/10/16 05:50:19;;;;;;;15.88;10.50;;;;;;;15.66;100.00;101040.25;5110770;28;20023;-71
2022/10/16 05:52:44;;;;;;;15.75;11.40;;;;;;;14.65;100.00;101003.16;5091906;28;20177;-72
2022/10/16 05:55:10;;;;;;;14.10;9.52;;;;;;;14.43;100.00;101085.66;5110307;28;20531;-72
2022/10/16 05:57:35;;;;;;;19.58;14.65;;;;;;;13.71;100.00;101071.19;5110538;28;20617;-71
2022/10/16 06:00:01;;;;;;;51.92;41.13;;;;;;;13.52;100.00;101069.94;5110266;28;20461;-72
2022/10/16 06:02:27;;;;;;;37.80;30.40;;;;;;;13.55;100.00;101077.53;5109930;28;20055;-72
2022/10/16 06:04:55;;;;;;;25.17;17.67;;;;;;;13.69;100.00;101072.94;5114296;28;20032;-72
2022/10/16 06:07:21;;;;;;;17.35;11.52;;;;;;;13.52;100.00;101043.53;5114549;28;20028;-73
2022/10/16 06:09:50;;;;;;;24.80;10.13;;;;;;;14.27;100.00;101081.75;5095236;28;20035;-71
2022/10/16 06:12:16;;;;;;;18.42;10.68;;;;;;;13.98;100.00;101079.94;5114026;28;20405;-72
2022/10/16 06:14:42;;;;;;;12.77;9.55;;;;;;;14.22;100.00;101075.94;5095810;28;20031;-72
2022/10/16 06:17:07;;;;;;;13.55;9.93;;;;;;;14.48;100.00;101076.16;5095614;28;20501;-72
2022/10/16 06:19:32;;;;;;;11.50;9.57;;;;;;;13.72;100.00;101042.22;5114150;28;20023;-72
2022/10/16 06:21:58;;;;;;;11.82;9.45;;;;;;;14.61;100.00;101087.72;5113858;28;20535;-72
2022/10/16 06:24:24;;;;;;;13.40;9.80;;;;;;;13.88;100.00;101104.84;5095288;28;20084;-72
2022/10/16 06:26:50;;;;;;;13.40;9.50;;;;;;;14.08;100.00;101101.00;5113398;28;20120;-72
2022/10/16 06:29:15;;;;;;;13.57;9.80;;;;;;;14.40;100.00;101095.97;5113697;28;20154;-72
2022/10/16 06:31:41;;;;;;;11.23;10.05;;;;;;;14.34;100.00;101056.00;5095117;28;20036;-72
2022/10/16 06:34:10;;;;;;;15.48;10.10;;;;;;;14.68;100.00;101100.31;5113471;28;20040;-72
2022/10/16 06:36:36;;;;;;;16.55;9.98;;;;;;;15.03;100.00;101086.56;5113363;28;20032;-72
2022/10/16 06:39:02;;;;;;;13.70;9.95;;;;;;;14.16;100.00;100999.34;5112924;28;20053;-71
2022/10/16 06:41:27;;;;;;;11.15;9.75;;;;;;;15.00;100.00;101106.28;5113175;28;20059;-72
2022/10/16 06:43:53;;;;;;;11.65;9.80;;;;;;;14.37;100.00;101042.31;5113149;28;20467;-71
2022/10/16 06:46:21;;;;;;;15.38;11.10;;;;;;;14.77;100.00;101083.88;5113269;28;20527;-72
2022/10/16 06:48:47;;;;;;;36.15;24.17;;;;;;;14.71;100.00;101043.09;5112839;28;20114;-71
2022/10/16 06:51:16;;;;;;;35.22;25.30;;;;;;;15.39;100.00;101120.53;5113120;28;20486;-72
2022/10/16 06:53:44;;;;;;;14.50;11.10;;;;;;;15.41;100.00;101062.38;5113145;28;20032;-72
2022/10/16 06:56:12;;;;;;;15.93;10.75;;;;;;;15.74;100.00;101125.47;5094772;28;20481;-71
2022/10/16 06:58:38;;;;;;;11.93;9.85;;;;;;;15.50;100.00;101080.91;5095089;28;20023;-70
2022/10/16 07:01:04;;;;;;;13.50;10.80;;;;;;;15.38;100.00;101060.75;5113192;28;20085;-71
2022/10/16 07:03:29;;;;;;;21.70;16.58;;;;;;;15.26;100.00;101043.16;5112753;28;20028;-71
2022/10/16 07:05:55;;;;;;;17.05;13.52;;;;;;;16.46;100.00;101125.66;5112861;28;20031;-71
2022/10/16 07:08:20;;;;;;;12.85;10.55;;;;;;;15.91;100.00;101119.78;5112574;28;20039;-71
2022/10/16 07:10:46;;;;;;;13.05;10.27;;;;;;;16.74;100.00;101119.63;5094667;28;20029;-71
2022/10/16 07:13:13;;;;;;;13.00;8.90;;;;;;;16.52;100.00;101122.06;5112527;28;20107;-70
2022/10/16 07:15:39;;;;;;;11.73;8.85;;;;;;;16.65;100.00;101107.09;5093670;28;20020;-72
2022/10/16 07:18:04;;;;;;;13.27;9.55;;;;;;;16.82;100.00;101120.16;5112885;28;20386;-71
2022/10/16 07:20:29;;;;;;;11.88;9.23;;;;;;;16.48;100.00;101130.72;5112633;28;20085;-70
2022/10/16 07:22:55;;;;;;;13.98;9.50;;;;;;;15.98;100.00;101081.09;5112034;28;20070;-71
2022/10/16 07:25:20;;;;;;;12.30;9.63;;;;;;;16.33;100.00;101087.63;5094133;28;20171;-70
2022/10/16 07:27:46;;;;;;;11.02;9.00;;;;;;;16.64;100.00;101078.00;5112005;28;20035;-70
2022/10/16 07:30:11;;;;;;;11.57;8.25;;;;;;;16.05;100.00;101074.88;5094292;28;20039;-72
2022/10/16 07:32:37;;;;;;;11.45;8.43;;;;;;;16.50;100.00;101069.13;5094201;28;20028;-71
2022/10/16 07:35:03;;;;;;;12.45;7.30;;;;;;;16.41;100.00;101036.84;5112227;28;20032;-71
2022/10/16 07:37:28;;;;;;;9.93;5.57;;;;;;;16.81;93.85;101065.41;5112134;28;20035;-71
2022/10/16 07:39:53;;;;;;;8.75;5.35;;;;;;;16.81;87.26;101038.88;5093977;28;20108;-72
2022/10/16 07:42:19;;;;;;;7.60;4.95;;;;;;;16.79;83.19;101113.44;5112362;28;20116;-72
2022/10/16 07:44:45;;;;;;;10.13;5.22;;;;;;;17.04;83.19;101095.41;5112224;28;20110;-72
2022/10/16 07:47:11;;;;;;;9.70;4.90;;;;;;;16.98;82.65;101093.88;5112315;28;20547;-72
2022/10/16 07:49:36;;;;;;;8.75;5.10;;;;;;;17.48;77.98;101048.28;5112161;28;20024;-72
2022/10/16 07:52:01;;;;;;;7.97;5.20;;;;;;;16.92;78.93;101071.00;5111606;28;20020;-70
2022/10/16 07:54:27;;;;;;;8.43;4.40;;;;;;;17.08;77.02;101068.69;5112066;28;20023;-71
2022/10/16 07:56:52;;;;;;;6.07;4.32;;;;;;;16.97;73.82;101075.97;5112177;28;20093;-71
2022/10/16 07:59:18;;;;;;;9.10;4.50;;;;;;;16.67;72.94;101113.00;5111927;28;20410;-72
2022/10/16 08:01:43;;;;;;;8.85;4.57;;;;;;;17.31;70.57;101097.78;5112002;28;20028;-72
2022/10/16 08:04:10;;;;;;;8.13;4.38;;;;;;;16.65;71.36;101018.06;5093600;28;20031;-72
2022/10/16 08:06:37;;;;;;;7.80;4.50;;;;;;;17.21;70.22;101052.75;5093566;28;20077;-70
2022/10/16 08:09:03;;;;;;;8.43;4.30;;;;;;;17.68;68.61;101107.53;5111484;28;20114;-71
2022/10/16 08:11:29;;;;;;;5.30;4.07;;;;;;;17.76;67.27;101099.53;5111698;28;20476;-71
2022/10/16 08:13:54;;;;;;;6.35;3.92;;;;;;;17.52;66.67;101062.75;5093766;28;20023;-71
2022/10/16 08:16:20;;;;;;;7.88;3.97;;;;;;;17.35;67.64;101041.97;5111389;28;20024;-71
2022/10/16 08:18:45;;;;;;;7.15;3.95;;;;;;;17.43;68.08;101095.66;5111495;28;20027;-71
2022/10/16 08:21:16;;;;;;;7.85;4.18;;;;;;;17.63;67.13;101060.56;5111516;28;20118;-71
2022/10/16 08:23:43;;;;;;;6.60;3.78;;;;;;;17.24;68.06;101044.94;5111653;28;20466;-73
2022/10/16 08:26:09;;;;;;;9.00;5.30;;;;;;;17.53;68.55;101061.81;5111645;28;20040;-70
2022/10/16 08:28:35;;;;;;;28.70;20.85;;;;;;;17.81;64.38;101061.56;5111266;28;20122;-70
2022/10/16 08:31:11;;;;;;;14.40;9.80;;;;;;;17.94;64.23;101121.97;5111153;28;20031;-70
2022/10/16 08:33:38;;;;;;;8.70;4.80;;;;;;;17.78;68.53;101106.28;5093271;28;20059;-72
2022/10/16 08:36:05;;;;;;;8.70;4.78;;;;;;;18.23;70.78;101103.59;5110990;28;20451;-69
2022/10/16 08:38:31;;;;;;;9.05;5.03;;;;;;;18.02;73.50;101104.47;5111294;28;20042;-69
2022/10/16 08:41:39;;;;;;;7.63;3.90;;;;;;;17.98;65.79;101110.63;5110913;28;20510;-70
2022/10/16 08:44:28;;;;;;;9.23;4.60;;;;;;;18.03;66.08;101109.56;5090619;28;20097;-72
2022/10/16 08:47:17;;;;;;;6.50;3.70;;;;;;;18.05;60.17;101119.78;5092649;28;20119;-70
2022/10/16 08:49:59;;;;;;;5.85;3.55;;;;;;;17.73;57.44;101041.31;5110950;28;20028;-72
2022/10/16 08:52:32;;;;;;;6.53;3.53;;;;;;;18.29;57.76;101093.03;5111243;28;20038;-70
2022/10/16 08:54:57;;;;;;;6.53;4.05;;;;;;;18.49;56.18;101035.56;5110917;28;20078;-70
2022/10/16 08:57:26;;;;;;;7.75;4.03;;;;;;;18.55;55.07;101079.09;5111083;28;20457;-70
2022/10/16 08:59:55;;;;;;;8.13;4.85;;;;;;;18.32;55.28;101033.69;5110866;28;20127;-71
2022/10/16 09:02:26;;;;;;;7.07;4.00;;;;;;;18.56;55.77;101111.69;5110583;28;20474;-70
2022/10/16 09:05:24;;;;;;;13.75;8.73;;;;;;;19.12;54.46;101098.88;5110378;28;20030;-73
2022/10/16 09:08:06;;;;;;;7.32;3.72;;;;;;;18.76;56.13;101119.38;5075488;28;20035;-71
2022/10/16 09:10:53;;;;;;;8.35;3.88;;;;;;;19.25;55.32;101118.06;5110613;28;20418;-71
2022/10/16 09:14:13;;;;;;;9.40;3.65;;;;;;;19.42;54.28;101107.81;5092098;28;20043;-71
2022/10/16 09:16:51;;;;;;;6.20;4.40;;;;;;;19.62;52.96;101087.09;5060201;28;20486;-72
2022/10/16 09:19:26;;;;;;;4.35;3.55;;;;;;;18.96;53.99;101106.47;5110479;28;20031;-73
2022/10/16 09:21:53;;;;;;;6.85;4.03;;;;;;;19.34;53.50;101066.06;5091832;28;20494;-71
2022/10/16 09:24:21;;;;;;;8.50;4.10;;;;;;;18.75;53.82;101046.41;5110838;28;20129;-71
2022/10/16 09:26:47;;;;;;;6.75;3.58;;;;;;;19.15;52.45;101054.91;5092549;28;20020;-71
2022/10/16 09:29:14;;;;;;;7.30;4.47;;;;;;;19.88;51.78;101090.13;5110300;28;20027;-73
2022/10/16 09:31:41;;;;;;;6.68;3.72;;;;;;;19.62;51.40;101059.56;5092541;28;20027;-74
2022/10/16 09:34:24;;;;;;;8.15;3.97;;;;;;;19.34;51.75;101087.56;5110698;28;20050;-72
2022/10/16 09:36:51;;;;;;;6.60;3.05;;;;;;;20.30;50.15;101107.84;5110849;28;20536;-72
2022/10/16 09:39:16;;;;;;;7.22;3.70;;;;;;;19.20;50.96;101002.22;5113746;28;20080;-72
2022/10/16 09:41:45;;;;;;;7.50;3.60;;;;;;;19.94;49.86;101096.72;5114536;28;20052;-72
2022/10/16 09:44:31;;;;;;;5.68;3.28;;;;;;;20.41;49.04;101090.06;5096013;28;20032;-72
2022/10/16 09:47:05;;;;;;;6.07;3.65;;;;;;;18.80;50.39;101047.03;5114033;28;20035;-71
2022/10/16 09:49:31;;;;;;;6.47;3.58;;;;;;;19.25;49.38;101036.38;5114498;28;20024;-72
2022/10/16 09:52:23;;;;;;;6.55;3.80;;;;;;;20.68;48.25;101101.56;5114465;28;20081;-72
2022/10/16 09:54:52;;;;;;;;;;;;;;;20.01;49.21;101098.06;5091521;28;20040;-72
2022/10/16 09:57:18;;;;;;;6.00;3.47;;;;;;;19.62;48.57;101022.59;5114444;28;19919;-72
2022/10/16 09:59:48;;;;;;;6.72;3.20;;;;;;;19.41;47.75;100997.81;5114219;28;20031;-73
2022/10/16 10:02:16;;;;;;;8.43;3.17;;;;;;;19.71;48.15;101033.28;5114268;28;20035;-73
2022/10/16 10:04:49;;;;;;;5.88;3.10;;;;;;;19.96;47.99;101019.19;5114388;28;20326;-72
2022/10/16 10:07:24;;;;;;;7.25;4.15;;;;;;;19.47;47.82;101023.34;5113769;28;20545;-72
2022/10/16 10:09:50;;;;;;;4.88;3.60;;;;;;;20.64;46.58;101019.09;5113874;28;20520;-71
2022/10/16 10:12:31;;;;;;;8.45;4.22;;;;;;;20.66;46.70;101035.34;5113802;28;20016;-71
2022/10/16 10:14:58;;;;;;;;;;;;;;;20.60;46.38;101075.28;5114217;28;20118;-71
2022/10/16 10:17:25;;;;;;;8.50;4.72;;;;;;;20.02;47.26;101024.88;5113929;28;19907;-71
2022/10/16 10:19:57;;;;;;;6.35;3.70;;;;;;;20.70;47.07;101079.06;5113752;28;20032;-72
2022/10/16 10:22:41;;;;;;;7.05;3.70;;;;;;;21.08;46.81;101065.88;5095358;28;20401;-71
2022/10/16 10:25:12;;;;;;;5.57;3.58;;;;;;;21.04;47.32;101067.81;5113651;28;20024;-71
2022/10/16 10:27:57;;;;;;;;;;;;;;;20.28;47.84;101060.56;5114335;28;20024;-72
2022/10/16 10:30:28;;;;;;;6.63;3.70;;;;;;;21.11;46.66;101063.16;5114046;28;19911;-72
2022/10/16 10:32:56;;;;;;;6.28;3.53;;;;;;;20.53;47.23;101061.03;5114054;28;20485;-73
2022/10/16 10:35:35;;;;;;;6.32;3.40;;;;;;;20.65;46.85;101016.44;5114293;28;20035;-72
2022/10/16 10:38:17;;;;;;;6.85;3.60;;;;;;;21.27;46.40;101064.81;5113655;28;20049;-72
2022/10/16 10:41:01;;;;;;;6.28;3.17;;;;;;;21.48;45.33;101057.63;5113675;28;20512;-72
2022/10/16 10:44:04;;;;;;;6.32;3.45;;;;;;;21.08;44.80;101056.38;5113719;28;20023;-72
2022/10/16 10:46:38;;;;;;;6.55;3.55;;;;;;;21.75;45.19;101043.09;5113910;28;20028;-72
2022/10/16 10:49:13;;;;;;;6.45;3.40;;;;;;;21.66;44.40;101045.41;5112812;28;20054;-73
2022/10/16 10:52:19;;;;;;;8.48;3.33;;;;;;;22.33;43.86;101044.03;5113699;28;20410;-73
2022/10/16 10:55:12;;;;;;;6.60;3.28;;;;;;;21.37;45.04;100970.22;5031134;28;20050;-72
2022/10/16 10:57:40;;;;;;;7.53;3.50;;;;;;;21.28;44.95;101040.59;5112836;28;20482;-72
2022/10/16 11:00:21;;;;;;;7.97;3.30;;;;;;;21.59;45.93;101050.91;5112997;28;20074;-72
2022/10/16 11:03:08;;;;;;;5.43;3.13;;;;;;;21.19;45.23;101037.69;5113211;28;20039;-72
2022/10/16 11:05:51;;;;;;;7.55;3.38;;;;;;;21.56;43.85;100986.38;5113202;28;20443;-73
2022/10/16 11:08:32;;;;;;;7.43;4.82;;;;;;;21.24;44.71;100997.72;5112786;28;20493;-72
2022/10/16 11:11:02;;;;;;;8.82;4.60;;;;;;;21.62;44.63;101033.53;5113148;28;20034;-73
2022/10/16 11:13:27;;;;;;;7.70;4.20;;;;;;;22.58;42.85;101030.44;5094977;28;20039;-73
2022/10/16 11:15:58;;;;;;;6.05;4.00;;;;;;;22.10;44.01;100999.66;5112842;28;20035;-73
2022/10/16 11:18:43;;;;;;;5.90;3.93;;;;;;;22.31;43.40;101016.53;5112434;28;20031;-72
2022/10/16 11:21:14;;;;;;;6.60;4.10;;;;;;;22.06;43.53;101026.69;5113010;28;20024;-72
2022/10/16 11:23:57;;;;;;;5.55;3.90;;;;;;;22.43;43.59;101008.84;5112975;28;20053;-72
2022/10/16 11:26:31;;;;;;;6.88;3.90;;;;;;;22.04;43.21;101039.75;5094884;28;20118;-73
2022/10/16 11:28:59;;;;;;;5.80;3.88;;;;;;;22.16;42.87;100984.59;5112779;28;20712;-73